sensor_id;sensor_type;location;lat;lon;timestamp;P1;durP1;ratioP1;P2;durP2;ratioP2
62654;SDS011;48717;55.556;37.816;2023-02-14T00:01:09;3.90;;;1.70;;
62654;SDS011;48717;55.556;37.816;2023-02-14T00:03:37;3.35;;;1.55;;
62654;SDS011;48717;55.556;37.816;2023-02-14T00:06:08;3.72;;;1.52;;
62654;SDS011;48717;55.556;37.816;2023-02-14T00:08:38;6.32;;;2.00;;
62654;SDS011;48717;55.556;37.816;2023-02-14T00:11:06;3.17;;;1.30;;
62654;SDS011;48717;55.556;37.816;2023-02-14T00:13:36;5.65;;;1.65;;
62654;SDS011;48717;55.556;37.816;2023-02-14T00:16:03;2.35;;;1.67;;
62654;SDS011;48717;55.556;37.816;2023-02-14T00:18:31;4.45;;;1.70;;
62654;SDS011;48717;55.556;37.816;2023-02-14T00:21:16;6.82;;;1.80;;
62654;SDS011;48717;55.556;37.816;2023-02-14T00:23:43;3.22;;;1.50;;
62654;SDS011;48717;55.556;37.816;2023-02-14T00:26:13;4.72;;;1.85;;
62654;SDS011;48717;55.556;37.816;2023-02-14T00:28:42;2.33;;;1.60;;
62654;SDS011;48717;55.556;37.816;2023-02-14T00:31:09;4.30;;;1.80;;
62654;SDS011;48717;55.556;37.816;2023-02-14T00:33:36;2.78;;;1.75;;
62654;SDS011;48717;55.556;37.816;2023-02-14T00:36:07;3.35;;;1.70;;
62654;SDS011;48717;55.556;37.816;2023-02-14T00:38:36;3.97;;;1.70;;
62654;SDS011;48717;55.556;37.816;2023-02-14T00:41:03;6.32;;;1.70;;
62654;SDS011;48717;55.556;37.816;2023-02-14T00:43:30;4.93;;;1.85;;
62654;SDS011;48717;55.556;37.816;2023-02-14T00:45:57;4.60;;;1.60;;
62654;SDS011;48717;55.556;37.816;2023-02-14T00:48:24;4.80;;;1.95;;
62654;SDS011;48717;55.556;37.816;2023-02-14T00:50:53;2.75;;;1.90;;
62654;SDS011;48717;55.556;37.816;2023-02-14T00:53:20;6.60;;;1.80;;
62654;SDS011;48717;55.556;37.816;2023-02-14T00:55:48;4.50;;;1.90;;
62654;SDS011;48717;55.556;37.816;2023-02-14T00:58:15;3.17;;;2.00;;
62654;SDS011;48717;55.556;37.816;2023-02-14T01:00:42;5.82;;;2.00;;
62654;SDS011;48717;55.556;37.816;2023-02-14T01:03:09;4.47;;;2.10;;
62654;SDS011;48717;55.556;37.816;2023-02-14T01:05:36;4.20;;;2.13;;
62654;SDS011;48717;55.556;37.816;2023-02-14T01:08:04;3.97;;;2.30;;
62654;SDS011;48717;55.556;37.816;2023-02-14T01:10:31;5.18;;;2.13;;
62654;SDS011;48717;55.556;37.816;2023-02-14T01:12:58;5.70;;;2.58;;
62654;SDS011;48717;55.556;37.816;2023-02-14T01:15:36;5.25;;;2.40;;
62654;SDS011;48717;55.556;37.816;2023-02-14T01:21:36;8.15;;;2.80;;
62654;SDS011;48717;55.556;37.816;2023-02-14T01:24:05;3.20;;;2.10;;
62654;SDS011;48717;55.556;37.816;2023-02-14T01:26:33;2.58;;;2.00;;
62654;SDS011;48717;55.556;37.816;2023-02-14T01:29:02;5.45;;;2.42;;
62654;SDS011;48717;55.556;37.816;2023-02-14T01:31:31;6.55;;;2.33;;
62654;SDS011;48717;55.556;37.816;2023-02-14T01:33:59;10.68;;;2.63;;
62654;SDS011;48717;55.556;37.816;2023-02-14T01:36:28;3.05;;;2.40;;
62654;SDS011;48717;55.556;37.816;2023-02-14T01:38:59;7.55;;;3.13;;
62654;SDS011;48717;55.556;37.816;2023-02-14T01:41:29;3.75;;;2.30;;
62654;SDS011;48717;55.556;37.816;2023-02-14T01:43:59;4.10;;;2.33;;
62654;SDS011;48717;55.556;37.816;2023-02-14T01:46:50;3.38;;;2.20;;
62654;SDS011;48717;55.556;37.816;2023-02-14T01:49:19;6.60;;;3.10;;
62654;SDS011;48717;55.556;37.816;2023-02-14T01:52:01;3.20;;;2.10;;
62654;SDS011;48717;55.556;37.816;2023-02-14T01:54:37;6.50;;;2.80;;
62654;SDS011;48717;55.556;37.816;2023-02-14T01:57:07;5.95;;;2.40;;
62654;SDS011;48717;55.556;37.816;2023-02-14T01:59:50;5.40;;;2.78;;
62654;SDS011;48717;55.556;37.816;2023-02-14T02:02:21;5.50;;;2.28;;
62654;SDS011;48717;55.556;37.816;2023-02-14T02:04:50;4.85;;;2.60;;
62654;SDS011;48717;55.556;37.816;2023-02-14T02:07:23;5.55;;;2.90;;
62654;SDS011;48717;55.556;37.816;2023-02-14T02:09:57;5.20;;;2.55;;
62654;SDS011;48717;55.556;37.816;2023-02-14T02:12:30;4.78;;;2.97;;
62654;SDS011;48717;55.556;37.816;2023-02-14T02:15:02;8.98;;;3.28;;
62654;SDS011;48717;55.556;37.816;2023-02-14T02:17:39;7.45;;;3.67;;
62654;SDS011;48717;55.556;37.816;2023-02-14T02:42:30;7.47;;;3.40;;
62654;SDS011;48717;55.556;37.816;2023-02-14T02:48:24;8.95;;;3.58;;
62654;SDS011;48717;55.556;37.816;2023-02-14T02:51:05;8.68;;;3.35;;
62654;SDS011;48717;55.556;37.816;2023-02-14T02:54:18;7.18;;;3.20;;
62654;SDS011;48717;55.556;37.816;2023-02-14T02:56:55;6.50;;;3.40;;
62654;SDS011;48717;55.556;37.816;2023-02-14T03:01:58;7.97;;;3.22;;
62654;SDS011;48717;55.556;37.816;2023-02-14T03:04:27;7.60;;;2.70;;
62654;SDS011;48717;55.556;37.816;2023-02-14T03:07:13;6.95;;;2.92;;
62654;SDS011;48717;55.556;37.816;2023-02-14T03:09:59;7.93;;;2.72;;
62654;SDS011;48717;55.556;37.816;2023-02-14T03:23:30;7.68;;;2.97;;
62654;SDS011;48717;55.556;37.816;2023-02-14T03:34:08;4.43;;;2.90;;
62654;SDS011;48717;55.556;37.816;2023-02-14T03:36:45;4.40;;;2.47;;
62654;SDS011;48717;55.556;37.816;2023-02-14T03:42:01;3.13;;;1.40;;
62654;SDS011;48717;55.556;37.816;2023-02-14T03:44:34;2.95;;;1.20;;
62654;SDS011;48717;55.556;37.816;2023-02-14T03:47:05;2.87;;;1.20;;
62654;SDS011;48717;55.556;37.816;2023-02-14T03:49:36;2.50;;;1.23;;
62654;SDS011;48717;55.556;37.816;2023-02-14T03:52:08;2.33;;;1.23;;
62654;SDS011;48717;55.556;37.816;2023-02-14T03:54:38;4.35;;;1.38;;
62654;SDS011;48717;55.556;37.816;2023-02-14T03:57:17;1.63;;;0.85;;
62654;SDS011;48717;55.556;37.816;2023-02-14T03:59:46;1.58;;;0.95;;
62654;SDS011;48717;55.556;37.816;2023-02-14T04:02:16;2.50;;;0.80;;
62654;SDS011;48717;55.556;37.816;2023-02-14T04:04:50;1.00;;;0.68;;
62654;SDS011;48717;55.556;37.816;2023-02-14T04:07:20;1.17;;;0.95;;
62654;SDS011;48717;55.556;37.816;2023-02-14T04:09:48;2.28;;;0.90;;
62654;SDS011;48717;55.556;37.816;2023-02-14T04:12:16;2.58;;;1.00;;
62654;SDS011;48717;55.556;37.816;2023-02-14T04:14:57;3.75;;;2.03;;
62654;SDS011;48717;55.556;37.816;2023-02-14T04:17:24;5.28;;;2.00;;
62654;SDS011;48717;55.556;37.816;2023-02-14T04:20:10;3.97;;;1.80;;
62654;SDS011;48717;55.556;37.816;2023-02-14T04:22:37;3.05;;;2.15;;
62654;SDS011;48717;55.556;37.816;2023-02-14T04:25:04;3.35;;;1.10;;
62654;SDS011;48717;55.556;37.816;2023-02-14T04:27:32;3.95;;;2.10;;
62654;SDS011;48717;55.556;37.816;2023-02-14T04:29:59;4.55;;;2.03;;
62654;SDS011;48717;55.556;37.816;2023-02-14T04:32:26;3.40;;;2.15;;
62654;SDS011;48717;55.556;37.816;2023-02-14T04:34:53;3.15;;;2.00;;
62654;SDS011;48717;55.556;37.816;2023-02-14T04:37:20;5.72;;;2.40;;
62654;SDS011;48717;55.556;37.816;2023-02-14T04:39:47;4.72;;;2.10;;
62654;SDS011;48717;55.556;37.816;2023-02-14T04:42:14;4.47;;;2.28;;
62654;SDS011;48717;55.556;37.816;2023-02-14T04:44:42;4.47;;;1.85;;
62654;SDS011;48717;55.556;37.816;2023-02-14T04:47:16;5.05;;;2.33;;
62654;SDS011;48717;55.556;37.816;2023-02-14T04:49:43;4.82;;;2.60;;
62654;SDS011;48717;55.556;37.816;2023-02-14T04:52:10;4.63;;;2.38;;
62654;SDS011;48717;55.556;37.816;2023-02-14T04:54:38;4.00;;;2.38;;
62654;SDS011;48717;55.556;37.816;2023-02-14T04:57:05;4.18;;;2.08;;
62654;SDS011;48717;55.556;37.816;2023-02-14T04:59:32;2.80;;;1.67;;
62654;SDS011;48717;55.556;37.816;2023-02-14T05:01:59;4.20;;;2.10;;
62654;SDS011;48717;55.556;37.816;2023-02-14T05:04:27;6.70;;;2.15;;
62654;SDS011;48717;55.556;37.816;2023-02-14T05:06:54;3.88;;;1.83;;
62654;SDS011;48717;55.556;37.816;2023-02-14T05:09:21;7.88;;;1.98;;
62654;SDS011;48717;55.556;37.816;2023-02-14T05:11:48;5.90;;;2.20;;
62654;SDS011;48717;55.556;37.816;2023-02-14T05:14:15;5.55;;;2.28;;
62654;SDS011;48717;55.556;37.816;2023-02-14T05:16:42;6.68;;;1.98;;
62654;SDS011;48717;55.556;37.816;2023-02-14T05:19:09;5.70;;;1.90;;
62654;SDS011;48717;55.556;37.816;2023-02-14T05:21:36;2.47;;;1.75;;
62654;SDS011;48717;55.556;37.816;2023-02-14T05:24:04;2.85;;;1.40;;
62654;SDS011;48717;55.556;37.816;2023-02-14T05:26:31;4.28;;;1.25;;
62654;SDS011;48717;55.556;37.816;2023-02-14T05:28:58;3.35;;;1.70;;
62654;SDS011;48717;55.556;37.816;2023-02-14T05:31:25;2.15;;;1.20;;
62654;SDS011;48717;55.556;37.816;2023-02-14T05:33:53;4.72;;;1.80;;
62654;SDS011;48717;55.556;37.816;2023-02-14T05:36:20;3.10;;;1.50;;
62654;SDS011;48717;55.556;37.816;2023-02-14T05:38:47;4.88;;;1.70;;
62654;SDS011;48717;55.556;37.816;2023-02-14T05:41:14;5.72;;;1.80;;
62654;SDS011;48717;55.556;37.816;2023-02-14T05:43:41;2.17;;;1.63;;
62654;SDS011;48717;55.556;37.816;2023-02-14T05:46:08;2.05;;;1.67;;
62654;SDS011;48717;55.556;37.816;2023-02-14T05:48:35;3.53;;;1.30;;
62654;SDS011;48717;55.556;37.816;2023-02-14T05:51:06;3.05;;;1.80;;
62654;SDS011;48717;55.556;37.816;2023-02-14T05:53:35;1.77;;;1.20;;
62654;SDS011;48717;55.556;37.816;2023-02-14T05:56:03;1.60;;;1.38;;
62654;SDS011;48717;55.556;37.816;2023-02-14T05:58:30;1.75;;;1.33;;
62654;SDS011;48717;55.556;37.816;2023-02-14T06:00:58;4.80;;;1.58;;
62654;SDS011;48717;55.556;37.816;2023-02-14T06:03:28;6.40;;;1.73;;
62654;SDS011;48717;55.556;37.816;2023-02-14T06:05:55;2.10;;;1.15;;
62654;SDS011;48717;55.556;37.816;2023-02-14T06:08:22;4.13;;;1.70;;
62654;SDS011;48717;55.556;37.816;2023-02-14T06:10:49;3.60;;;1.90;;
62654;SDS011;48717;55.556;37.816;2023-02-14T06:13:17;5.78;;;1.95;;
62654;SDS011;48717;55.556;37.816;2023-02-14T06:15:54;4.82;;;1.70;;
62654;SDS011;48717;55.556;37.816;2023-02-14T06:18:21;3.42;;;1.42;;
62654;SDS011;48717;55.556;37.816;2023-02-14T06:20:48;2.83;;;1.50;;
62654;SDS011;48717;55.556;37.816;2023-02-14T06:23:18;5.07;;;1.83;;
62654;SDS011;48717;55.556;37.816;2023-02-14T06:25:45;6.30;;;2.50;;
62654;SDS011;48717;55.556;37.816;2023-02-14T06:28:13;5.97;;;2.08;;
62654;SDS011;48717;55.556;37.816;2023-02-14T06:30:40;4.15;;;1.90;;
62654;SDS011;48717;55.556;37.816;2023-02-14T06:33:08;6.47;;;2.00;;
62654;SDS011;48717;55.556;37.816;2023-02-14T06:35:35;5.95;;;2.05;;
62654;SDS011;48717;55.556;37.816;2023-02-14T06:38:02;3.83;;;1.95;;
62654;SDS011;48717;55.556;37.816;2023-02-14T06:40:29;7.72;;;2.03;;
62654;SDS011;48717;55.556;37.816;2023-02-14T06:42:56;5.55;;;2.00;;
62654;SDS011;48717;55.556;37.816;2023-02-14T06:45:24;3.30;;;1.95;;
62654;SDS011;48717;55.556;37.816;2023-02-14T06:47:51;8.40;;;2.55;;
62654;SDS011;48717;55.556;37.816;2023-02-14T06:50:18;6.25;;;2.75;;
62654;SDS011;48717;55.556;37.816;2023-02-14T06:52:45;5.13;;;2.20;;
62654;SDS011;48717;55.556;37.816;2023-02-14T06:55:13;6.38;;;2.28;;
62654;SDS011;48717;55.556;37.816;2023-02-14T06:57:40;3.08;;;2.20;;
62654;SDS011;48717;55.556;37.816;2023-02-14T07:00:07;3.83;;;1.73;;
62654;SDS011;48717;55.556;37.816;2023-02-14T07:02:35;4.93;;;2.05;;
62654;SDS011;48717;55.556;37.816;2023-02-14T07:05:03;4.68;;;2.28;;
62654;SDS011;48717;55.556;37.816;2023-02-14T07:07:30;2.88;;;1.90;;
62654;SDS011;48717;55.556;37.816;2023-02-14T07:09:57;3.95;;;1.92;;
62654;SDS011;48717;55.556;37.816;2023-02-14T07:12:24;2.53;;;1.45;;
62654;SDS011;48717;55.556;37.816;2023-02-14T07:14:51;3.00;;;1.80;;
62654;SDS011;48717;55.556;37.816;2023-02-14T07:17:18;3.08;;;1.67;;
62654;SDS011;48717;55.556;37.816;2023-02-14T07:19:46;3.58;;;2.00;;
62654;SDS011;48717;55.556;37.816;2023-02-14T07:22:12;3.88;;;1.90;;
62654;SDS011;48717;55.556;37.816;2023-02-14T07:24:40;3.22;;;1.80;;
62654;SDS011;48717;55.556;37.816;2023-02-14T07:27:07;2.65;;;1.75;;
62654;SDS011;48717;55.556;37.816;2023-02-14T07:29:34;4.60;;;1.85;;
62654;SDS011;48717;55.556;37.816;2023-02-14T07:32:03;5.82;;;2.35;;
62654;SDS011;48717;55.556;37.816;2023-02-14T07:34:30;5.60;;;2.58;;
62654;SDS011;48717;55.556;37.816;2023-02-14T07:36:59;3.78;;;2.40;;
62654;SDS011;48717;55.556;37.816;2023-02-14T07:39:27;5.20;;;2.60;;
62654;SDS011;48717;55.556;37.816;2023-02-14T07:41:54;4.40;;;2.30;;
62654;SDS011;48717;55.556;37.816;2023-02-14T07:44:24;5.47;;;2.63;;
62654;SDS011;48717;55.556;37.816;2023-02-14T07:46:52;3.72;;;2.42;;
62654;SDS011;48717;55.556;37.816;2023-02-14T07:49:19;3.72;;;2.38;;
62654;SDS011;48717;55.556;37.816;2023-02-14T07:51:46;3.35;;;2.22;;
62654;SDS011;48717;55.556;37.816;2023-02-14T07:57:06;3.22;;;2.40;;
62654;SDS011;48717;55.556;37.816;2023-02-14T07:59:33;3.20;;;2.17;;
62654;SDS011;48717;55.556;37.816;2023-02-14T08:02:00;6.28;;;2.03;;
62654;SDS011;48717;55.556;37.816;2023-02-14T08:04:27;3.10;;;1.80;;
62654;SDS011;48717;55.556;37.816;2023-02-14T08:06:55;3.97;;;1.80;;
62654;SDS011;48717;55.556;37.816;2023-02-14T08:09:22;5.10;;;2.00;;
62654;SDS011;48717;55.556;37.816;2023-02-14T08:11:53;3.05;;;1.75;;
62654;SDS011;48717;55.556;37.816;2023-02-14T08:14:40;3.20;;;1.80;;
62654;SDS011;48717;55.556;37.816;2023-02-14T08:17:08;3.80;;;1.92;;
62654;SDS011;48717;55.556;37.816;2023-02-14T08:19:36;2.70;;;1.95;;
62654;SDS011;48717;55.556;37.816;2023-02-14T08:22:03;4.00;;;2.60;;
62654;SDS011;48717;55.556;37.816;2023-02-14T08:24:31;7.68;;;2.00;;
62654;SDS011;48717;55.556;37.816;2023-02-14T08:26:58;4.22;;;2.10;;
62654;SDS011;48717;55.556;37.816;2023-02-14T08:29:25;3.92;;;2.10;;
62654;SDS011;48717;55.556;37.816;2023-02-14T08:31:52;6.18;;;2.10;;
62654;SDS011;48717;55.556;37.816;2023-02-14T08:34:20;3.67;;;2.10;;
62654;SDS011;48717;55.556;37.816;2023-02-14T08:36:47;3.33;;;2.00;;
62654;SDS011;48717;55.556;37.816;2023-02-14T08:39:14;2.85;;;1.92;;
62654;SDS011;48717;55.556;37.816;2023-02-14T08:41:41;6.75;;;1.83;;
62654;SDS011;48717;55.556;37.816;2023-02-14T08:44:08;3.97;;;1.88;;
62654;SDS011;48717;55.556;37.816;2023-02-14T08:46:35;3.30;;;1.60;;
62654;SDS011;48717;55.556;37.816;2023-02-14T08:49:02;4.65;;;1.58;;
62654;SDS011;48717;55.556;37.816;2023-02-14T08:51:30;2.90;;;1.80;;
62654;SDS011;48717;55.556;37.816;2023-02-14T08:53:57;4.60;;;1.90;;
62654;SDS011;48717;55.556;37.816;2023-02-14T08:56:24;2.65;;;1.70;;
62654;SDS011;48717;55.556;37.816;2023-02-14T08:58:51;3.22;;;1.70;;
62654;SDS011;48717;55.556;37.816;2023-02-14T09:01:20;3.42;;;1.90;;
62654;SDS011;48717;55.556;37.816;2023-02-14T09:03:47;5.68;;;1.67;;
62654;SDS011;48717;55.556;37.816;2023-02-14T09:06:15;3.03;;;1.70;;
62654;SDS011;48717;55.556;37.816;2023-02-14T09:08:43;3.22;;;2.03;;
62654;SDS011;48717;55.556;37.816;2023-02-14T09:11:18;5.10;;;2.17;;
62654;SDS011;48717;55.556;37.816;2023-02-14T09:13:51;2.83;;;1.55;;
62654;SDS011;48717;55.556;37.816;2023-02-14T09:16:20;4.80;;;1.70;;
62654;SDS011;48717;55.556;37.816;2023-02-14T09:18:48;5.72;;;2.20;;
62654;SDS011;48717;55.556;37.816;2023-02-14T09:21:17;5.38;;;2.28;;
62654;SDS011;48717;55.556;37.816;2023-02-14T09:23:46;4.18;;;1.98;;
62654;SDS011;48717;55.556;37.816;2023-02-14T09:26:14;2.47;;;2.00;;
62654;SDS011;48717;55.556;37.816;2023-02-14T09:28:42;3.88;;;2.00;;
62654;SDS011;48717;55.556;37.816;2023-02-14T09:31:11;2.47;;;1.95;;
62654;SDS011;48717;55.556;37.816;2023-02-14T09:33:39;5.28;;;2.22;;
62654;SDS011;48717;55.556;37.816;2023-02-14T09:36:07;4.45;;;2.20;;
62654;SDS011;48717;55.556;37.816;2023-02-14T09:38:53;6.68;;;2.33;;
62654;SDS011;48717;55.556;37.816;2023-02-14T09:46:47;2.35;;;1.60;;
62654;SDS011;48717;55.556;37.816;2023-02-14T09:49:19;3.15;;;1.63;;
62654;SDS011;48717;55.556;37.816;2023-02-14T09:54:27;2.92;;;1.80;;
62654;SDS011;48717;55.556;37.816;2023-02-14T09:57:00;2.72;;;2.17;;
62654;SDS011;48717;55.556;37.816;2023-02-14T09:59:44;4.85;;;2.30;;
62654;SDS011;48717;55.556;37.816;2023-02-14T10:05:17;3.40;;;2.53;;
62654;SDS011;48717;55.556;37.816;2023-02-14T10:10:21;4.55;;;2.63;;
62654;SDS011;48717;55.556;37.816;2023-02-14T10:15:55;5.97;;;3.33;;
62654;SDS011;48717;55.556;37.816;2023-02-14T10:21:30;2.78;;;2.20;;
62654;SDS011;48717;55.556;37.816;2023-02-14T10:24:15;4.32;;;2.65;;
62654;SDS011;48717;55.556;37.816;2023-02-14T10:26:47;4.18;;;2.90;;
62654;SDS011;48717;55.556;37.816;2023-02-14T10:29:17;4.15;;;2.28;;
62654;SDS011;48717;55.556;37.816;2023-02-14T10:31:58;4.15;;;2.78;;
62654;SDS011;48717;55.556;37.816;2023-02-14T10:38:00;5.28;;;3.15;;
62654;SDS011;48717;55.556;37.816;2023-02-14T10:45:43;3.20;;;1.90;;
62654;SDS011;48717;55.556;37.816;2023-02-14T10:56:39;3.90;;;2.00;;
62654;SDS011;48717;55.556;37.816;2023-02-14T10:59:22;4.10;;;2.70;;
62654;SDS011;48717;55.556;37.816;2023-02-14T11:02:00;6.07;;;2.25;;
62654;SDS011;48717;55.556;37.816;2023-02-14T11:04:28;4.28;;;2.03;;
62654;SDS011;48717;55.556;37.816;2023-02-14T11:06:57;5.05;;;2.10;;
62654;SDS011;48717;55.556;37.816;2023-02-14T11:09:24;2.85;;;1.83;;
62654;SDS011;48717;55.556;37.816;2023-02-14T11:11:52;5.53;;;2.20;;
62654;SDS011;48717;55.556;37.816;2023-02-14T11:14:23;4.60;;;2.35;;
62654;SDS011;48717;55.556;37.816;2023-02-14T11:16:56;1.45;;;1.13;;
62654;SDS011;48717;55.556;37.816;2023-02-14T11:22:02;3.85;;;1.92;;
62654;SDS011;48717;55.556;37.816;2023-02-14T11:24:31;2.30;;;1.63;;
62654;SDS011;48717;55.556;37.816;2023-02-14T11:27:05;4.22;;;2.10;;
62654;SDS011;48717;55.556;37.816;2023-02-14T11:29:44;2.78;;;1.70;;
62654;SDS011;48717;55.556;37.816;2023-02-14T11:32:24;5.40;;;2.00;;
62654;SDS011;48717;55.556;37.816;2023-02-14T11:34:58;3.42;;;1.88;;
62654;SDS011;48717;55.556;37.816;2023-02-14T11:37:30;3.67;;;2.15;;
62654;SDS011;48717;55.556;37.816;2023-02-14T11:40:05;1.88;;;1.20;;
62654;SDS011;48717;55.556;37.816;2023-02-14T11:45:43;4.63;;;1.80;;
62654;SDS011;48717;55.556;37.816;2023-02-14T11:48:17;6.35;;;1.88;;
62654;SDS011;48717;55.556;37.816;2023-02-14T11:51:09;2.20;;;1.52;;
62654;SDS011;48717;55.556;37.816;2023-02-14T11:53:47;3.20;;;1.80;;
62654;SDS011;48717;55.556;37.816;2023-02-14T11:56:18;6.45;;;2.17;;
62654;SDS011;48717;55.556;37.816;2023-02-14T11:58:49;3.47;;;2.10;;
62654;SDS011;48717;55.556;37.816;2023-02-14T12:01:25;4.18;;;2.30;;
62654;SDS011;48717;55.556;37.816;2023-02-14T12:03:57;5.35;;;2.50;;
62654;SDS011;48717;55.556;37.816;2023-02-14T12:06:31;7.13;;;2.25;;
62654;SDS011;48717;55.556;37.816;2023-02-14T12:12:00;4.90;;;1.90;;
62654;SDS011;48717;55.556;37.816;2023-02-14T12:14:31;5.75;;;1.90;;
62654;SDS011;48717;55.556;37.816;2023-02-14T12:19:50;2.67;;;1.77;;
62654;SDS011;48717;55.556;37.816;2023-02-14T12:22:46;4.85;;;1.90;;
62654;SDS011;48717;55.556;37.816;2023-02-14T12:25:17;5.05;;;1.38;;
62654;SDS011;48717;55.556;37.816;2023-02-14T12:27:59;3.88;;;2.10;;
62654;SDS011;48717;55.556;37.816;2023-02-14T12:30:31;1.73;;;1.35;;
62654;SDS011;48717;55.556;37.816;2023-02-14T12:33:00;2.03;;;1.48;;
62654;SDS011;48717;55.556;37.816;2023-02-14T12:35:46;2.35;;;1.55;;
62654;SDS011;48717;55.556;37.816;2023-02-14T12:47:35;5.03;;;1.42;;
62654;SDS011;48717;55.556;37.816;2023-02-14T13:15:45;3.50;;;1.60;;
62654;SDS011;48717;55.556;37.816;2023-02-14T13:18:38;3.03;;;1.80;;
62654;SDS011;48717;55.556;37.816;2023-02-14T13:21:10;3.90;;;2.38;;
62654;SDS011;48717;55.556;37.816;2023-02-14T13:23:45;8.65;;;2.13;;
62654;SDS011;48717;55.556;37.816;2023-02-14T13:26:19;5.97;;;2.33;;
62654;SDS011;48717;55.556;37.816;2023-02-14T13:28:51;4.47;;;2.55;;
62654;SDS011;48717;55.556;37.816;2023-02-14T13:31:24;3.75;;;2.22;;
62654;SDS011;48717;55.556;37.816;2023-02-14T13:33:53;4.85;;;2.20;;
62654;SDS011;48717;55.556;37.816;2023-02-14T13:36:26;6.00;;;2.10;;
62654;SDS011;48717;55.556;37.816;2023-02-14T13:38:54;3.75;;;1.75;;
62654;SDS011;48717;55.556;37.816;2023-02-14T13:41:24;3.97;;;1.88;;
62654;SDS011;48717;55.556;37.816;2023-02-14T13:43:59;3.03;;;1.80;;
62654;SDS011;48717;55.556;37.816;2023-02-14T13:55:19;2.92;;;1.63;;
62654;SDS011;48717;55.556;37.816;2023-02-14T14:03:06;3.90;;;2.05;;
62654;SDS011;48717;55.556;37.816;2023-02-14T14:19:36;5.57;;;1.60;;
62654;SDS011;48717;55.556;37.816;2023-02-14T14:22:03;2.75;;;1.60;;
62654;SDS011;48717;55.556;37.816;2023-02-14T14:24:34;3.60;;;1.75;;
62654;SDS011;48717;55.556;37.816;2023-02-14T14:29:53;2.17;;;1.27;;
62654;SDS011;48717;55.556;37.816;2023-02-14T14:34:56;5.18;;;1.60;;
62654;SDS011;48717;55.556;37.816;2023-02-14T14:37:30;4.88;;;1.88;;
62654;SDS011;48717;55.556;37.816;2023-02-14T14:40:00;3.15;;;1.67;;
62654;SDS011;48717;55.556;37.816;2023-02-14T14:42:38;3.17;;;1.58;;
62654;SDS011;48717;55.556;37.816;2023-02-14T14:45:08;5.65;;;1.60;;
62654;SDS011;48717;55.556;37.816;2023-02-14T14:50:38;3.22;;;1.67;;
62654;SDS011;48717;55.556;37.816;2023-02-14T14:57:38;2.05;;;1.50;;
62654;SDS011;48717;55.556;37.816;2023-02-14T15:00:17;3.45;;;1.73;;
62654;SDS011;48717;55.556;37.816;2023-02-14T15:02:55;2.25;;;1.48;;
62654;SDS011;48717;55.556;37.816;2023-02-14T15:11:04;8.23;;;2.42;;
62654;SDS011;48717;55.556;37.816;2023-02-14T15:13:45;4.30;;;2.20;;
62654;SDS011;48717;55.556;37.816;2023-02-14T15:17:02;6.82;;;2.25;;
62654;SDS011;48717;55.556;37.816;2023-02-14T15:22:19;5.75;;;2.10;;
62654;SDS011;48717;55.556;37.816;2023-02-14T15:24:49;3.47;;;1.60;;
62654;SDS011;48717;55.556;37.816;2023-02-14T15:27:18;5.95;;;2.75;;
62654;SDS011;48717;55.556;37.816;2023-02-14T15:29:58;4.22;;;1.88;;
62654;SDS011;48717;55.556;37.816;2023-02-14T15:32:30;4.80;;;1.95;;
62654;SDS011;48717;55.556;37.816;2023-02-14T15:35:00;4.50;;;1.92;;
62654;SDS011;48717;55.556;37.816;2023-02-14T15:37:30;4.47;;;1.73;;
62654;SDS011;48717;55.556;37.816;2023-02-14T15:39:57;2.38;;;1.77;;
62654;SDS011;48717;55.556;37.816;2023-02-14T15:42:26;5.10;;;1.70;;
62654;SDS011;48717;55.556;37.816;2023-02-14T15:47:49;5.78;;;2.20;;
62654;SDS011;48717;55.556;37.816;2023-02-14T15:50:22;6.63;;;2.40;;
62654;SDS011;48717;55.556;37.816;2023-02-14T15:52:52;5.07;;;1.95;;
62654;SDS011;48717;55.556;37.816;2023-02-14T15:57:55;3.97;;;2.20;;
62654;SDS011;48717;55.556;37.816;2023-02-14T16:00:30;5.88;;;2.58;;
62654;SDS011;48717;55.556;37.816;2023-02-14T16:03:00;5.28;;;1.80;;
62654;SDS011;48717;55.556;37.816;2023-02-14T16:05:33;5.40;;;2.20;;
62654;SDS011;48717;55.556;37.816;2023-02-14T16:08:05;4.30;;;1.98;;
62654;SDS011;48717;55.556;37.816;2023-02-14T16:10:58;5.57;;;2.30;;
62654;SDS011;48717;55.556;37.816;2023-02-14T16:13:30;5.43;;;2.33;;
62654;SDS011;48717;55.556;37.816;2023-02-14T16:16:19;4.43;;;2.30;;
62654;SDS011;48717;55.556;37.816;2023-02-14T16:18:48;4.75;;;1.98;;
62654;SDS011;48717;55.556;37.816;2023-02-14T16:26:33;6.38;;;2.47;;
62654;SDS011;48717;55.556;37.816;2023-02-14T16:29:02;3.42;;;1.92;;
62654;SDS011;48717;55.556;37.816;2023-02-14T16:31:32;3.72;;;2.03;;
62654;SDS011;48717;55.556;37.816;2023-02-14T16:34:01;4.57;;;2.05;;
62654;SDS011;48717;55.556;37.816;2023-02-14T16:36:29;5.97;;;2.30;;
62654;SDS011;48717;55.556;37.816;2023-02-14T16:39:01;3.95;;;2.08;;
62654;SDS011;48717;55.556;37.816;2023-02-14T16:41:31;5.13;;;2.20;;
62654;SDS011;48717;55.556;37.816;2023-02-14T16:44:00;19.52;;;5.05;;
62654;SDS011;48717;55.556;37.816;2023-02-14T16:46:28;26.83;;;5.50;;
62654;SDS011;48717;55.556;37.816;2023-02-14T16:48:57;15.02;;;4.30;;
62654;SDS011;48717;55.556;37.816;2023-02-14T16:51:26;3.95;;;1.65;;
62654;SDS011;48717;55.556;37.816;2023-02-14T16:53:55;7.57;;;2.35;;
62654;SDS011;48717;55.556;37.816;2023-02-14T16:56:27;4.68;;;2.20;;
62654;SDS011;48717;55.556;37.816;2023-02-14T16:58:54;5.88;;;2.88;;
62654;SDS011;48717;55.556;37.816;2023-02-14T17:01:25;4.68;;;2.40;;
62654;SDS011;48717;55.556;37.816;2023-02-14T17:03:52;5.80;;;2.83;;
62654;SDS011;48717;55.556;37.816;2023-02-14T17:06:19;6.00;;;2.25;;
62654;SDS011;48717;55.556;37.816;2023-02-14T17:08:49;4.05;;;2.20;;
62654;SDS011;48717;55.556;37.816;2023-02-14T17:11:18;5.63;;;2.63;;
62654;SDS011;48717;55.556;37.816;2023-02-14T17:13:47;3.67;;;2.15;;
62654;SDS011;48717;55.556;37.816;2023-02-14T17:16:15;4.38;;;2.20;;
62654;SDS011;48717;55.556;37.816;2023-02-14T17:18:44;4.65;;;2.55;;
62654;SDS011;48717;55.556;37.816;2023-02-14T17:21:15;6.82;;;2.42;;
62654;SDS011;48717;55.556;37.816;2023-02-14T17:23:45;5.90;;;2.60;;
62654;SDS011;48717;55.556;37.816;2023-02-14T17:26:12;5.35;;;2.67;;
62654;SDS011;48717;55.556;37.816;2023-02-14T17:28:39;4.55;;;2.10;;
62654;SDS011;48717;55.556;37.816;2023-02-14T17:31:06;6.55;;;2.92;;
62654;SDS011;48717;55.556;37.816;2023-02-14T17:33:34;6.07;;;2.40;;
62654;SDS011;48717;55.556;37.816;2023-02-14T17:36:02;6.43;;;2.45;;
62654;SDS011;48717;55.556;37.816;2023-02-14T17:38:37;3.38;;;1.73;;
62654;SDS011;48717;55.556;37.816;2023-02-14T17:41:12;4.53;;;2.25;;
62654;SDS011;48717;55.556;37.816;2023-02-14T17:43:42;7.57;;;2.22;;
62654;SDS011;48717;55.556;37.816;2023-02-14T17:46:10;4.95;;;2.20;;
62654;SDS011;48717;55.556;37.816;2023-02-14T17:48:40;5.10;;;2.25;;
62654;SDS011;48717;55.556;37.816;2023-02-14T17:51:08;5.50;;;1.98;;
62654;SDS011;48717;55.556;37.816;2023-02-14T17:53:35;4.05;;;2.10;;
62654;SDS011;48717;55.556;37.816;2023-02-14T17:56:04;3.75;;;1.77;;
62654;SDS011;48717;55.556;37.816;2023-02-14T17:58:43;4.68;;;1.90;;
62654;SDS011;48717;55.556;37.816;2023-02-14T18:01:14;4.47;;;1.85;;
62654;SDS011;48717;55.556;37.816;2023-02-14T18:03:43;4.03;;;1.58;;
62654;SDS011;48717;55.556;37.816;2023-02-14T18:06:10;4.20;;;2.20;;
62654;SDS011;48717;55.556;37.816;2023-02-14T18:08:40;4.15;;;2.05;;
62654;SDS011;48717;55.556;37.816;2023-02-14T18:11:11;4.80;;;2.00;;
62654;SDS011;48717;55.556;37.816;2023-02-14T18:13:39;5.38;;;1.70;;